首页
METAR-TAF:

METAR-TAF

机场 :

斯普利特, 克罗地亚

纬度: 43-32N, 经度: 016-18E, 海拔: 19米

当前天气观测

该预报发布于35分钟前的18:30 UTC
风速10节,风向北转东北
温度 14°C
湿度 38%
气压 1021 hPa
能见度10公里或以上
1500米以下无云,无积雨云

METAR: LDSP 181830Z 02010KT CAVOK 14/00 Q1021 NOSIG

时间: 20:05 (19:05 UTC)

预报

该预报发布于1小时和40分钟前的17:25 UTC
预报有效从18日的 18点(UTC)到 19日的 18点(UTC)
风速5节,风向北转西北
能见度10公里或以上
散云层高于5000英尺
短暂存在
从 18日的 18点(UTC)到 18日的 23点(UTC)
风速10节,风向东北
短暂存在
从 19日的 09点(UTC)到 19日的 15点(UTC)
风速7节,风向西南
几率 30% :
短暂存在
从 19日的 15点(UTC)到 19日的 18点(UTC)
风速10节,风向西转西北
少量云层高于2500英尺, 积雨云.
多云层高于3000英尺
雷暴, 雨

TAF: LDSP 181725Z 1818/1918 34005KT 9999 SCT050 TX14/1912Z TN07/1906Z TEMPO 1818/1823 05010KT TEMPO 1909/1915 23007KT RA PROB30 TEMPO 1915/1918 30010KT TSRA FEW025CB BKN030

超过4000个机场的气象观测和天气预报(METAR&TAF报告)。

可查询的气象台以黄色和红色小点在地图上表示。

将鼠标移到小点上方,可查看气象台名称。

然后点击查看天气观测和预报。

如需切换地图:点击带黑十字的绿色按钮放大地图;点击带横线的绿色按钮缩小地图;或者点击绿色箭头查看邻近地区的地图。


METAR-TAF: